createdAt,value
2023-03-26T00:04:25.588Z,8.32
2023-03-26T00:09:29.923Z,8.24
2023-03-26T00:14:40.869Z,8.16
2023-03-26T00:19:43.150Z,8.09
2023-03-26T00:24:47.536Z,8.02
2023-03-26T00:29:49.322Z,7.99
2023-03-26T00:34:52.243Z,7.99
2023-03-26T00:40:00.944Z,8.01
2023-03-26T00:45:23.216Z,7.99
2023-03-26T00:50:31.131Z,8.00
2023-03-26T00:55:34.442Z,7.98
2023-03-26T01:00:42.045Z,7.87
2023-03-26T01:05:48.868Z,7.73
2023-03-26T01:10:51.875Z,7.60
2023-03-26T01:15:53.841Z,7.47
2023-03-26T01:21:05.258Z,7.35
2023-03-26T01:26:19.522Z,7.24
2023-03-26T01:31:29.620Z,7.11
2023-03-26T01:36:47.080Z,7.01
2023-03-26T01:41:57.499Z,6.95
2023-03-26T01:47:00.689Z,6.92
2023-03-26T01:52:02.437Z,6.92
2023-03-26T01:57:41.648Z,6.94
2023-03-26T02:03:19.564Z,7.01
2023-03-26T02:08:31.716Z,7.12
2023-03-26T02:13:33.555Z,7.22
2023-03-26T02:18:41.384Z,7.29
2023-03-26T02:23:46.726Z,7.36
2023-03-26T02:28:48.701Z,7.40
2023-03-26T02:33:50.723Z,7.38
2023-03-26T02:38:54.067Z,7.34
2023-03-26T02:43:55.924Z,7.32
2023-03-26T02:49:00.098Z,7.30
2023-03-26T02:54:02.421Z,7.30
2023-03-26T02:59:27.362Z,7.32
2023-03-26T03:04:47.419Z,7.34
2023-03-26T03:09:50.616Z,7.37
2023-03-26T03:15:12.388Z,7.38
2023-03-26T03:20:14.263Z,7.38
2023-03-26T03:25:17.490Z,7.38
2023-03-26T03:30:19.838Z,7.36
2023-03-26T03:35:21.688Z,7.36
2023-03-26T03:40:26.666Z,7.35
2023-03-26T03:45:28.623Z,7.33
2023-03-26T03:50:43.138Z,7.29
2023-03-26T03:55:56.814Z,7.24
2023-03-26T04:01:03.113Z,7.21
2023-03-26T04:06:30.250Z,7.21
2023-03-26T04:11:32.078Z,7.21
2023-03-26T04:16:50.850Z,7.23
2023-03-26T04:21:54.428Z,7.25
2023-03-26T04:27:01.186Z,7.23
2023-03-26T04:32:21.111Z,7.20
2023-03-26T04:37:34.399Z,7.18
2023-03-26T04:42:46.355Z,7.18
2023-03-26T04:47:58.385Z,7.21
2023-03-26T04:53:01.043Z,7.24
2023-03-26T04:58:20.904Z,7.25
2023-03-26T05:03:32.021Z,7.25
2023-03-26T05:08:36.922Z,7.22
2023-03-26T05:13:42.752Z,7.19
2023-03-26T05:18:46.685Z,7.19
2023-03-26T05:23:48.802Z,7.22
2023-03-26T05:28:54.446Z,7.27
2023-03-26T05:34:03.765Z,7.35
2023-03-26T05:39:05.586Z,7.51
2023-03-26T05:44:26.120Z,7.70
2023-03-26T05:49:28.249Z,8.19
2023-03-26T05:54:30.357Z,8.62
2023-03-26T06:00:09.057Z,8.95
2023-03-26T06:05:19.693Z,9.00
2023-03-26T06:10:48.767Z,8.97
2023-03-26T06:15:50.849Z,9.03
2023-03-26T06:21:00.340Z,9.32
2023-03-26T06:26:12.803Z,10.79
2023-03-26T06:31:33.060Z,10.88
2023-03-26T06:36:52.709Z,10.49
2023-03-26T06:41:56.047Z,10.11
2023-03-26T06:47:18.047Z,9.79
2023-03-26T06:52:26.106Z,9.55
2023-03-26T06:57:49.121Z,9.37
2023-03-26T07:03:11.431Z,9.21
2023-03-26T07:08:32.077Z,9.12
2023-03-26T07:14:12.523Z,9.16
2023-03-26T07:19:24.289Z,9.39
2023-03-26T07:24:27.357Z,9.65
2023-03-26T07:29:48.613Z,9.78
2023-03-26T07:35:04.409Z,9.90
2023-03-26T07:40:37.869Z,10.01
2023-03-26T07:45:58.710Z,10.13
2023-03-26T07:51:21.345Z,10.90
2023-03-26T07:56:42.891Z,12.12
2023-03-26T08:02:46.360Z,12.86
2023-03-26T08:08:19.598Z,12.81
2023-03-26T08:14:01.308Z,12.44
2023-03-26T08:19:27.495Z,12.24
2023-03-26T08:24:43.139Z,12.60
2023-03-26T08:29:55.609Z,13.22
2023-03-26T08:35:00.250Z,13.41
2023-03-26T08:40:02.048Z,13.29
2023-03-26T08:45:11.327Z,12.96
2023-03-26T08:50:38.316Z,12.59
2023-03-26T08:56:06.579Z,12.19
2023-03-26T09:01:57.080Z,12.00
2023-03-26T09:07:21.502Z,11.98
2023-03-26T09:12:36.667Z,12.05
2023-03-26T09:17:54.941Z,12.18
2023-03-26T09:23:11.024Z,12.13
2023-03-26T09:28:26.647Z,11.79
2023-03-26T09:33:47.699Z,11.39
2023-03-26T09:39:08.686Z,11.04
2023-03-26T09:44:44.499Z,10.83
2023-03-26T09:50:15.794Z,10.77
2023-03-26T09:55:32.465Z,10.80
2023-03-26T10:01:06.775Z,10.85
2023-03-26T10:06:41.764Z,11.27
2023-03-26T10:12:02.086Z,11.88
2023-03-26T10:17:54.987Z,12.25
2023-03-26T10:23:17.168Z,12.48
2023-03-26T10:28:42.304Z,12.72
2023-03-26T10:33:59.125Z,13.06
2023-03-26T10:39:11.456Z,13.42
2023-03-26T10:45:07.334Z,13.74
2023-03-26T10:50:24.272Z,13.96
2023-03-26T10:55:34.229Z,14.36
2023-03-26T11:00:41.136Z,14.44
2023-03-26T11:06:09.040Z,14.50
2023-03-26T11:11:16.727Z,14.66
2023-03-26T11:16:24.740Z,14.63
2023-03-26T11:21:42.290Z,14.61
2023-03-26T11:26:57.012Z,14.71
2023-03-26T11:32:22.522Z,14.73
2023-03-26T11:37:33.493Z,14.67
2023-03-26T11:42:35.961Z,14.72
2023-03-26T11:47:47.436Z,14.80
2023-03-26T11:52:50.039Z,15.02
2023-03-26T11:57:57.472Z,15.20
2023-03-26T12:03:00.444Z,15.24
2023-03-26T12:08:18.637Z,15.22
2023-03-26T12:13:36.354Z,14.98
2023-03-26T12:18:41.192Z,14.74
2023-03-26T12:24:08.512Z,14.47
2023-03-26T12:29:19.083Z,14.33
2023-03-26T12:34:30.880Z,14.37
2023-03-26T12:40:06.919Z,14.45
2023-03-26T12:45:02.502Z,14.59
2023-03-26T12:50:05.531Z,14.68
2023-03-26T12:55:23.580Z,14.69
2023-03-26T13:00:35.959Z,14.73
2023-03-26T13:05:40.746Z,14.72
2023-03-26T13:11:03.726Z,14.63
2023-03-26T13:16:14.621Z,14.52
2023-03-26T13:21:38.069Z,14.49
2023-03-26T13:27:06.368Z,14.57
2023-03-26T13:32:30.313Z,14.70
2023-03-26T13:38:06.089Z,14.64
2023-03-26T13:43:33.844Z,14.43
2023-03-26T13:48:54.231Z,14.38
2023-03-26T13:54:04.925Z,14.41
2023-03-26T13:59:14.677Z,14.45
2023-03-26T14:04:25.176Z,14.60
2023-03-26T14:09:36.218Z,14.80
2023-03-26T14:14:53.458Z,14.95
2023-03-26T14:19:57.966Z,15.01
2023-03-26T14:25:08.681Z,15.06
2023-03-26T14:30:32.102Z,15.01
2023-03-26T14:35:51.360Z,14.84
2023-03-26T14:41:06.865Z,14.70
2023-03-26T14:46:27.498Z,14.62
2023-03-26T14:52:07.361Z,14.53
2023-03-26T14:57:37.126Z,14.45
2023-03-26T15:03:02.324Z,14.37
2023-03-26T15:08:12.904Z,14.30
2023-03-26T15:13:31.883Z,14.24
2023-03-26T15:19:17.735Z,14.14
2023-03-26T15:24:57.356Z,13.96
2023-03-26T15:30:26.973Z,13.80
2023-03-26T15:36:21.516Z,13.73
2023-03-26T15:41:44.358Z,13.70
2023-03-26T15:47:01.834Z,13.64
2023-03-26T15:52:28.344Z,13.62
2023-03-26T15:57:44.002Z,13.56
2023-03-26T16:02:56.041Z,13.38
2023-03-26T16:08:16.154Z,13.15
2023-03-26T16:13:30.682Z,12.89
2023-03-26T16:18:51.017Z,12.64
2023-03-26T16:23:57.804Z,12.44
2023-03-26T16:29:14.157Z,12.27
2023-03-26T16:34:26.210Z,12.13
2023-03-26T16:39:42.242Z,12.00
2023-03-26T16:45:04.743Z,11.83
2023-03-26T16:50:24.488Z,11.67
2023-03-26T16:55:34.725Z,11.52
2023-03-26T17:00:46.097Z,11.39
2023-03-26T17:05:57.046Z,11.25
2023-03-26T17:11:18.173Z,11.12
2023-03-26T17:16:43.232Z,10.99
2023-03-26T17:22:03.938Z,10.88
2023-03-26T17:27:17.260Z,10.78
2023-03-26T17:32:21.481Z,10.66
2023-03-26T17:37:23.512Z,10.56
2023-03-26T17:42:32.977Z,10.45
2023-03-26T17:47:39.480Z,10.37
2023-03-26T17:52:51.543Z,10.32
2023-03-26T17:57:57.079Z,10.25
2023-03-26T18:03:14.151Z,10.18
2023-03-26T18:08:30.929Z,10.16
2023-03-26T18:13:47.702Z,10.17
2023-03-26T18:18:54.169Z,10.19
2023-03-26T18:24:00.111Z,10.21
2023-03-26T18:29:26.632Z,10.22
2023-03-26T18:34:31.633Z,10.20
2023-03-26T18:39:33.359Z,10.14
2023-03-26T18:44:39.127Z,10.08
2023-03-26T18:49:44.792Z,10.00
2023-03-26T18:54:49.374Z,9.92
2023-03-26T18:59:54.042Z,9.84
2023-03-26T19:04:56.720Z,9.78
2023-03-26T19:10:01.412Z,9.73
2023-03-26T19:15:11.886Z,9.67
2023-03-26T19:20:21.701Z,9.65
2023-03-26T19:25:37.702Z,9.65
2023-03-26T19:30:41.866Z,9.61
2023-03-26T19:35:46.316Z,9.55
2023-03-26T19:40:50.668Z,9.45
2023-03-26T19:46:00.294Z,9.32
2023-03-26T19:51:06.098Z,9.17
2023-03-26T19:56:07.767Z,9.08
2023-03-26T20:01:18.997Z,9.03
2023-03-26T20:06:30.809Z,8.99
2023-03-26T20:11:39.245Z,8.91
2023-03-26T20:16:43.829Z,8.83
2023-03-26T20:21:46.575Z,8.76
2023-03-26T20:26:48.265Z,8.71
2023-03-26T20:31:50.144Z,8.68
2023-03-26T20:36:55.385Z,8.63
2023-03-26T20:41:57.338Z,8.59
2023-03-26T20:46:59.229Z,8.60
2023-03-26T20:52:01.213Z,8.66
2023-03-26T20:57:02.965Z,8.70
2023-03-26T21:02:04.925Z,8.69
2023-03-26T21:07:17.694Z,8.63
2023-03-26T21:12:41.200Z,8.59
2023-03-26T21:17:43.361Z,8.50
2023-03-26T21:23:14.709Z,8.43
2023-03-26T21:28:46.576Z,8.39
2023-03-26T21:33:51.957Z,8.35
2023-03-26T21:38:54.727Z,8.27
2023-03-26T21:43:59.814Z,8.18
2023-03-26T21:49:04.991Z,8.14
2023-03-26T21:54:24.756Z,8.18
2023-03-26T21:59:39.109Z,8.30
2023-03-26T22:05:08.244Z,8.37
2023-03-26T22:10:09.976Z,8.42
2023-03-26T22:15:13.834Z,8.47
2023-03-26T22:20:15.756Z,8.50
2023-03-26T22:25:18.230Z,8.52
2023-03-26T22:30:23.402Z,8.53
2023-03-26T22:35:26.577Z,8.51
2023-03-26T22:40:28.735Z,8.41
2023-03-26T22:45:30.809Z,8.31
2023-03-26T22:50:32.998Z,8.26
2023-03-26T22:55:34.768Z,8.26
2023-03-26T23:00:36.468Z,8.24
2023-03-26T23:05:38.644Z,8.19
2023-03-26T23:10:46.016Z,8.11
2023-03-26T23:15:54.861Z,8.12
2023-03-26T23:20:58.589Z,8.15
2023-03-26T23:26:04.943Z,8.08
2023-03-26T23:31:09.343Z,7.98
2023-03-26T23:36:13.750Z,7.93
2023-03-26T23:41:19.292Z,7.91
2023-03-26T23:46:23.946Z,7.96
2023-03-26T23:51:30.286Z,8.03
2023-03-26T23:56:32.180Z,8.12
